ADDS METAR Data INFO
IDs: Format: Raw Decoded Include TAF

Data at: 1052 UTC 19 Oct 2017

KCDW 190953Z AUTO 00000KT 10SM CLR 07/07 A3027 RMK AO2 SLP254 T00720072 TSNO
KCDW 190853Z AUTO 00000KT 10SM CLR 07/07 A3026 RMK AO2 SLP253 T00720072 55004 TSNO
KCDW 190753Z AUTO 00000KT 10SM CLR 08/08 A3026 RMK AO2 SLP253 T00780078 TSNO
KCDW 190653Z AUTO 00000KT 10SM CLR 08/08 A3027 RMK AO2 SLP255 T00830083 TSNO
KCDW 190553Z AUTO 00000KT 10SM CLR 09/09 A3028 RMK AO2 SLP258 T00890089 10150 20089 56006 TSNO
KCDW 190453Z AUTO 00000KT 10SM CLR 09/09 A3028 RMK AO2 SLP259 T00940094 402330050 TSNO
KCDW 190353Z AUTO 00000KT 10SM CLR 10/09 A3029 RMK AO2 SLP261 T01000094 TSNO
KCDW 190253Z AUTO 00000KT 10SM CLR 11/10 A3029 RMK AO2 SLP263 T01060100 50005 TSNO
KCDW 190153Z AUTO 00000KT 10SM CLR 12/10 A3029 RMK AO2 SLP264 T01170100 TSNO
KCDW 190053Z AUTO 00000KT 10SM CLR 13/11 A3029 RMK AO2 SLP262 T01330106 TSNO
KCDW 182353Z AUTO 00000KT 10SM CLR 14/10 A3028 RMK AO2 SLP258 T01440100 10233 20144 53011 TSNO
KCDW 182253Z AUTO 00000KT 10SM CLR 17/09 A3027 RMK AO2 SLP254 T01720094 TSNO
KCDW 182153Z AUTO 22004KT 10SM CLR 21/09 A3025 RMK AO2 SLP249 T02060094 TSNO
KCDW 182053Z AUTO VRB05KT 10SM CLR 22/09 A3025 RMK AO2 SLP247 T02220089 56011 TSNO
KCDW 181953Z AUTO 28006KT 10SM CLR 23/09 A3025 RMK AO2 SLP249 T02280089 TSNO
KCDW 181853Z 29006KT 10SM CLR 23/08 A3026 RMK AO2 SLP254 T02280083
KCDW 181753Z 20003KT 10SM CLR 22/09 A3028 RMK AO2 SLP258 T02170094 10222 20067 58017
KCDW 181653Z 16004KT 10SM CLR 20/09 A3031 RMK AO2 SLP269 T02000089
KCDW 181553Z 00000KT 10SM CLR 18/08 A3033 RMK AO2 SLP275 T01780078
KCDW 181453Z 00000KT 10SM CLR 15/07 A3033 RMK AO2 SLP275 T01500067 50002
KCDW 181353Z 29003KT 10SM CLR 13/06 A3033 RMK AO2 SLP277 T01280056
KCDW 181253Z 00000KT 10SM CLR 09/04 A3034 RMK AO2 SLP279 T00940044
KCDW 181153Z 00000KT 10SM CLR 07/04 A3032 RMK AO2 SLP274 T00670039 10067 20050 51013
KCDW 181053Z 00000KT 10SM CLR 06/04 A3031 RMK AO2 SLP271 T00610039
KCDW 180953Z AUTO 00000KT 10SM CLR 05/04 A3030 RMK AO2 SLP265 T00500039 TSNO
KCDW 180853Z AUTO 28003KT 10SM CLR 06/03 A3028 RMK AO2 SLP260 T00610033 55005 TSNO
KCDW 180753Z AUTO 00000KT 10SM CLR 07/03 A3027 RMK AO2 SLP257 T00670033 TSNO
KCDW 180653Z 00000KT 10SM CLR 06/03 A3029 RMK AO2 SLP262 T00610033
KCDW 180553Z 00000KT 10SM CLR 06/03 A3030 RMK AO2 SLP265 T00610033 10100 20061 55001
KCDW 180453Z 00000KT 10SM CLR 07/04 A3030 RMK AO2 SLP266 T00670039 401560017
KCDW 180353Z 00000KT 10SM CLR 07/04 A3030 RMK AO2 SLP267 T00720039
KCDW 180253Z 00000KT 10SM CLR 07/04 A3030 RMK AO2 SLP267 T00720039 53008
KCDW 180153Z 00000KT 10SM CLR 08/03 A3029 RMK AO2 SLP263 T00780033
KCDW 180053Z 00000KT 10SM CLR 09/03 A3028 RMK AO2 SLP260 T00940033
KCDW 172353Z 00000KT 10SM CLR 10/03 A3028 RMK AO2 SLP259 T01000033 10156 20100 53010
KCDW 172253Z 00000KT 10SM CLR 13/02 A3026 RMK AO2 SLP254 T01280017